createdAt,value
2022-09-20T00:01:54.797Z,9.09
2022-09-20T00:04:23.582Z,9.05
2022-09-20T00:06:53.067Z,9.00
2022-09-20T00:09:21.944Z,8.94
2022-09-20T00:11:52.178Z,8.88
2022-09-20T00:14:22.918Z,8.84
2022-09-20T00:16:51.979Z,8.75
2022-09-20T00:19:24.042Z,8.66
2022-09-20T00:21:52.970Z,8.56
2022-09-20T00:24:22.154Z,8.46
2022-09-20T00:26:52.162Z,8.38
2022-09-20T00:29:22.198Z,8.32
2022-09-20T00:31:51.168Z,8.25
2022-09-20T00:34:38.338Z,8.22
2022-09-20T00:37:08.554Z,8.18
2022-09-20T00:39:37.353Z,8.14
2022-09-20T00:42:08.172Z,8.11
2022-09-20T00:45:02.185Z,8.10
2022-09-20T00:47:51.707Z,8.11
2022-09-20T00:50:23.554Z,8.12
2022-09-20T00:53:16.542Z,8.13
2022-09-20T00:55:54.596Z,8.12
2022-09-20T00:58:26.967Z,8.09
2022-09-20T01:00:58.459Z,8.09
2022-09-20T01:03:31.709Z,8.10
2022-09-20T01:06:06.735Z,8.09
2022-09-20T01:08:36.980Z,8.07
2022-09-20T01:11:06.286Z,8.07
2022-09-20T01:13:35.684Z,8.06
2022-09-20T01:16:06.518Z,8.06
2022-09-20T01:18:38.731Z,8.07
2022-09-20T01:21:11.331Z,8.12
2022-09-20T01:24:16.996Z,8.18
2022-09-20T01:26:53.962Z,8.26
2022-09-20T01:29:39.908Z,8.30
2022-09-20T01:32:13.547Z,8.34
2022-09-20T01:34:48.755Z,8.38
2022-09-20T01:37:49.092Z,8.44
2022-09-20T01:40:33.409Z,8.49
2022-09-20T01:43:08.003Z,8.52
2022-09-20T01:45:47.231Z,8.55
2022-09-20T01:48:31.499Z,8.57
2022-09-20T01:51:40.042Z,8.60
2022-09-20T01:54:28.692Z,8.68
2022-09-20T01:57:25.062Z,8.70
2022-09-20T02:00:18.047Z,8.72
2022-09-20T02:03:27.147Z,8.78
2022-09-20T02:06:18.164Z,8.82
2022-09-20T02:09:23.659Z,8.78
2022-09-20T02:12:24.700Z,8.77
2022-09-20T02:15:42.824Z,8.74
2022-09-20T02:18:30.092Z,8.75
2022-09-20T02:21:45.879Z,8.76
2022-09-20T02:24:54.401Z,8.76
2022-09-20T02:30:56.815Z,8.70
2022-09-20T02:33:39.356Z,8.67
2022-09-20T02:36:23.172Z,8.63
2022-09-20T02:39:11.552Z,8.62
2022-09-20T02:42:19.233Z,8.55
2022-09-20T02:45:27.018Z,8.47
2022-09-20T02:48:01.251Z,8.41
2022-09-20T02:50:43.721Z,8.42
2022-09-20T02:53:31.360Z,8.50
2022-09-20T02:56:00.064Z,8.50
2022-09-20T02:58:56.284Z,8.43
2022-09-20T03:02:01.504Z,8.45
2022-09-20T03:04:39.463Z,8.48
2022-09-20T03:07:34.371Z,8.46
2022-09-20T03:10:16.953Z,8.44
2022-09-20T03:13:13.283Z,8.41
2022-09-20T03:16:09.429Z,8.31
2022-09-20T03:18:48.675Z,8.24
2022-09-20T03:21:50.259Z,8.18
2022-09-20T03:24:34.919Z,8.08
2022-09-20T03:27:20.401Z,8.00
2022-09-20T03:30:19.784Z,7.94
2022-09-20T03:33:19.971Z,7.89
2022-09-20T03:35:59.749Z,7.83
2022-09-20T03:38:51.542Z,7.78
2022-09-20T03:41:55.321Z,7.77
2022-09-20T03:44:44.195Z,7.76
2022-09-20T03:48:06.794Z,7.80
2022-09-20T03:50:43.292Z,7.84
2022-09-20T03:53:46.974Z,7.86
2022-09-20T03:56:21.931Z,7.93
2022-09-20T03:59:18.853Z,7.96
2022-09-20T04:02:06.651Z,7.97
2022-09-20T04:04:58.042Z,7.96
2022-09-20T04:07:48.343Z,7.98
2022-09-20T04:10:47.347Z,7.95
2022-09-20T04:13:36.552Z,7.92
2022-09-20T04:16:27.811Z,7.90
2022-09-20T04:19:04.850Z,7.91
2022-09-20T04:21:51.636Z,7.95
2022-09-20T04:24:26.981Z,7.98
2022-09-20T04:27:15.983Z,7.98
2022-09-20T04:29:53.523Z,7.97
2022-09-20T04:32:31.444Z,8.00
2022-09-20T04:35:24.903Z,8.09
2022-09-20T04:37:54.891Z,8.16
2022-09-20T04:41:07.898Z,8.19
2022-09-20T04:44:26.970Z,8.26
2022-09-20T04:46:56.300Z,8.26
2022-09-20T04:50:01.214Z,8.27
2022-09-20T04:52:56.330Z,8.29
2022-09-20T04:55:45.870Z,8.34
2022-09-20T04:58:35.654Z,8.41
2022-09-20T05:01:17.300Z,8.45
2022-09-20T05:03:59.752Z,8.49
2022-09-20T05:06:49.494Z,8.54
2022-09-20T05:09:36.309Z,8.56
2022-09-20T05:12:52.618Z,8.63
2022-09-20T05:15:36.710Z,8.71
2022-09-20T05:18:37.397Z,8.74
2022-09-20T05:21:24.750Z,8.78
2022-09-20T05:24:12.592Z,8.86
2022-09-20T05:27:03.053Z,8.94
2022-09-20T05:30:03.152Z,8.96
2022-09-20T05:32:46.742Z,8.94
2022-09-20T05:35:32.092Z,8.98
2022-09-20T05:38:25.704Z,9.00
2022-09-20T05:41:04.263Z,8.99
2022-09-20T05:44:00.183Z,9.03
2022-09-20T05:46:41.524Z,9.07
2022-09-20T05:49:41.466Z,9.17
2022-09-20T05:52:10.135Z,9.37
2022-09-20T05:55:08.395Z,9.59
2022-09-20T05:57:58.103Z,9.90
2022-09-20T06:00:33.399Z,10.13
2022-09-20T06:03:41.244Z,10.32
2022-09-20T06:06:22.138Z,10.67
2022-09-20T06:09:11.075Z,10.87
2022-09-20T06:12:12.151Z,11.07
2022-09-20T06:15:03.799Z,11.26
2022-09-20T06:17:50.164Z,11.39
2022-09-20T06:20:50.863Z,11.60
2022-09-20T06:23:21.722Z,11.78
2022-09-20T06:26:18.583Z,11.81
2022-09-20T06:28:56.449Z,11.95
2022-09-20T06:31:29.071Z,12.13
2022-09-20T06:34:09.293Z,12.32
2022-09-20T06:37:00.995Z,12.75
2022-09-20T06:40:38.123Z,13.60
2022-09-20T06:43:07.580Z,14.09
2022-09-20T06:45:37.923Z,14.04
2022-09-20T06:48:13.661Z,14.13
2022-09-20T06:50:45.716Z,14.24
2022-09-20T06:53:18.478Z,14.40
2022-09-20T06:55:49.981Z,14.93
2022-09-20T06:58:20.279Z,15.91
2022-09-20T07:00:49.677Z,17.60
2022-09-20T07:03:20.034Z,18.89
2022-09-20T07:05:49.586Z,19.55
2022-09-20T07:08:19.859Z,21.09
2022-09-20T07:10:50.539Z,21.49
2022-09-20T07:13:21.763Z,20.61
2022-09-20T07:15:51.793Z,19.85
2022-09-20T07:18:21.265Z,19.05
2022-09-20T07:20:53.524Z,18.47
2022-09-20T07:23:22.839Z,18.06
2022-09-20T07:25:53.668Z,18.00
2022-09-20T07:28:23.633Z,19.48
2022-09-20T07:30:53.829Z,21.63
2022-09-20T07:33:25.437Z,24.06
2022-09-20T07:35:55.970Z,26.00
2022-09-20T07:38:26.940Z,27.04
2022-09-20T07:41:00.178Z,28.01
2022-09-20T07:43:31.209Z,27.81
2022-09-20T07:46:00.439Z,26.13
2022-09-20T07:48:36.554Z,26.76
2022-09-20T07:51:09.032Z,28.28
2022-09-20T07:53:38.786Z,29.08
2022-09-20T07:56:15.189Z,30.15
2022-09-20T07:58:48.635Z,31.17
2022-09-20T08:01:22.607Z,31.76
2022-09-20T08:03:52.952Z,31.83
2022-09-20T08:06:22.692Z,32.11
2022-09-20T08:08:55.265Z,33.01
2022-09-20T08:11:28.979Z,33.72
2022-09-20T08:14:08.773Z,33.53
2022-09-20T08:16:44.431Z,32.54
2022-09-20T08:19:23.106Z,30.57
2022-09-20T08:21:54.246Z,28.97
2022-09-20T08:24:23.135Z,29.70
2022-09-20T08:26:52.458Z,28.57
2022-09-20T08:29:21.373Z,28.78
2022-09-20T08:31:53.051Z,28.70
2022-09-20T08:34:21.828Z,30.16
2022-09-20T08:36:56.910Z,30.73
2022-09-20T08:42:36.664Z,32.24
2022-09-20T08:45:34.410Z,32.77
2022-09-20T08:48:14.843Z,30.74
2022-09-20T08:50:44.426Z,30.52
2022-09-20T08:53:22.616Z,30.71
2022-09-20T08:55:51.534Z,30.81
2022-09-20T08:58:21.072Z,30.18
2022-09-20T09:00:50.932Z,30.64
2022-09-20T09:03:20.024Z,29.15
2022-09-20T09:05:53.285Z,29.69
2022-09-20T09:08:37.680Z,29.52
2022-09-20T09:11:12.293Z,30.76
2022-09-20T09:14:01.962Z,31.51
2022-09-20T09:16:36.597Z,30.92
2022-09-20T09:19:34.143Z,30.23
2022-09-20T09:22:06.453Z,30.16
2022-09-20T09:24:36.223Z,30.27
2022-09-20T09:27:18.233Z,29.48
2022-09-20T09:29:53.054Z,29.03
2022-09-20T09:32:29.634Z,29.21
2022-09-20T09:35:36.325Z,28.26
2022-09-20T09:38:05.196Z,26.10
2022-09-20T09:40:34.159Z,26.26
2022-09-20T09:43:04.453Z,26.66
2022-09-20T09:45:39.205Z,25.74
2022-09-20T09:48:27.158Z,24.41
2022-09-20T09:51:17.177Z,23.06
2022-09-20T09:53:49.013Z,21.76
2022-09-20T09:56:47.767Z,20.78
2022-09-20T09:59:31.598Z,20.17
2022-09-20T10:02:07.225Z,19.86
2022-09-20T10:04:56.948Z,19.61
2022-09-20T10:07:30.884Z,20.57
2022-09-20T10:10:26.026Z,23.15
2022-09-20T10:13:24.465Z,25.53
2022-09-20T10:15:56.111Z,27.50
2022-09-20T10:18:50.005Z,28.86
2022-09-20T10:21:51.936Z,27.78
2022-09-20T10:24:31.388Z,27.49
2022-09-20T10:27:52.548Z,27.91
2022-09-20T10:30:24.493Z,25.91
2022-09-20T10:33:10.211Z,24.22
2022-09-20T10:35:58.200Z,24.48
2022-09-20T10:38:59.091Z,23.85
2022-09-20T10:41:46.484Z,23.71
2022-09-20T10:44:21.382Z,23.65
2022-09-20T10:47:04.145Z,23.07
2022-09-20T10:50:08.116Z,22.46
2022-09-20T10:53:09.489Z,22.03
2022-09-20T10:56:04.377Z,22.00
2022-09-20T10:59:00.561Z,22.79
2022-09-20T11:01:30.313Z,24.60
2022-09-20T11:04:09.414Z,26.04
2022-09-20T11:07:20.622Z,26.61
2022-09-20T11:10:01.043Z,25.02
2022-09-20T11:12:43.224Z,23.99
2022-09-20T11:15:30.051Z,23.41
2022-09-20T11:18:06.917Z,24.40
2022-09-20T11:21:02.851Z,25.52
2022-09-20T11:23:44.498Z,26.68
2022-09-20T11:26:26.400Z,27.52
2022-09-20T11:29:04.790Z,27.35
2022-09-20T11:31:41.834Z,27.40
2022-09-20T11:34:31.599Z,27.76
2022-09-20T11:37:03.709Z,27.76
2022-09-20T11:39:42.883Z,27.79
2022-09-20T11:42:17.006Z,27.52
2022-09-20T11:44:46.479Z,26.41
2022-09-20T11:47:49.714Z,25.15
2022-09-20T11:50:35.643Z,24.07
2022-09-20T11:53:26.253Z,23.55
2022-09-20T11:56:02.581Z,23.55
2022-09-20T11:58:34.277Z,23.66
2022-09-20T12:01:14.675Z,23.48
2022-09-20T12:03:50.796Z,23.76
2022-09-20T12:06:39.110Z,23.95
2022-09-20T12:09:24.891Z,23.48
2022-09-20T12:11:57.084Z,23.35
2022-09-20T12:14:28.660Z,23.51
2022-09-20T12:16:58.942Z,23.60
2022-09-20T12:19:35.549Z,23.48
2022-09-20T12:22:09.492Z,22.74
2022-09-20T12:24:45.319Z,22.19
2022-09-20T12:27:30.974Z,21.83
2022-09-20T12:30:22.686Z,21.63
2022-09-20T12:32:58.540Z,22.10
2022-09-20T12:35:36.576Z,21.95
2022-09-20T12:38:20.534Z,21.20
2022-09-20T12:41:04.253Z,20.55
2022-09-20T12:43:36.267Z,20.57
2022-09-20T12:46:11.270Z,21.15
2022-09-20T12:48:42.560Z,21.80
2022-09-20T12:51:43.745Z,22.33
2022-09-20T12:54:14.464Z,21.94
2022-09-20T12:56:47.130Z,21.51
2022-09-20T12:59:31.335Z,21.28
2022-09-20T13:02:38.817Z,20.88
2022-09-20T13:05:32.716Z,20.66
2022-09-20T13:08:18.528Z,20.34
2022-09-20T13:11:13.700Z,19.86
2022-09-20T13:14:08.904Z,19.28
2022-09-20T13:17:14.326Z,18.87
2022-09-20T13:19:47.090Z,18.34
2022-09-20T13:22:45.774Z,17.86
2022-09-20T13:25:18.144Z,17.42
2022-09-20T13:28:07.636Z,17.19
2022-09-20T13:30:37.880Z,16.95
2022-09-20T13:33:17.900Z,16.75
2022-09-20T13:35:50.329Z,16.52
2022-09-20T13:38:23.016Z,16.33
2022-09-20T13:40:54.679Z,16.23
2022-09-20T13:43:47.139Z,16.11
2022-09-20T13:46:27.076Z,16.05
2022-09-20T13:49:18.059Z,15.97
2022-09-20T13:51:49.484Z,15.87
2022-09-20T13:54:31.920Z,15.77
2022-09-20T13:57:05.749Z,15.74
2022-09-20T13:59:43.887Z,15.73
2022-09-20T14:02:40.717Z,15.60
2022-09-20T14:05:19.115Z,15.55
2022-09-20T14:07:49.362Z,15.58
2022-09-20T14:10:37.564Z,15.59
2022-09-20T14:13:09.521Z,15.65
2022-09-20T14:15:46.221Z,15.68
2022-09-20T14:18:21.738Z,15.70
2022-09-20T14:20:51.772Z,15.62
2022-09-20T14:23:26.788Z,15.64
2022-09-20T14:26:09.458Z,15.73
2022-09-20T14:28:38.260Z,16.12
2022-09-20T14:31:13.987Z,16.52
2022-09-20T14:33:52.953Z,16.71
2022-09-20T14:36:33.090Z,16.52
2022-09-20T14:39:05.883Z,16.29
2022-09-20T14:41:40.608Z,16.17
2022-09-20T14:44:36.645Z,16.09
2022-09-20T14:47:17.251Z,16.06
2022-09-20T14:49:47.538Z,16.36
2022-09-20T14:52:45.669Z,16.47
2022-09-20T14:55:15.176Z,16.52
2022-09-20T14:57:46.819Z,16.34
2022-09-20T15:00:24.188Z,16.18
2022-09-20T15:02:53.913Z,16.30
2022-09-20T15:05:28.758Z,16.61
2022-09-20T15:08:00.960Z,16.97
2022-09-20T15:10:30.911Z,17.23
2022-09-20T15:13:06.242Z,17.52
2022-09-20T15:15:37.329Z,17.67
2022-09-20T15:18:23.927Z,17.88
2022-09-20T15:20:55.949Z,18.07
2022-09-20T15:23:25.789Z,18.20
2022-09-20T15:25:57.529Z,18.25
2022-09-20T15:28:28.620Z,18.27
2022-09-20T15:30:58.350Z,18.31
2022-09-20T15:33:31.121Z,18.44
2022-09-20T15:36:02.746Z,18.49
2022-09-20T15:38:31.921Z,18.49
2022-09-20T15:41:04.555Z,18.49
2022-09-20T15:43:34.398Z,18.37
2022-09-20T15:46:22.977Z,18.13
2022-09-20T15:48:55.657Z,17.88
2022-09-20T15:51:24.646Z,17.67
2022-09-20T15:53:57.721Z,17.51
2022-09-20T15:56:33.368Z,17.30
2022-09-20T15:59:07.481Z,17.11
2022-09-20T16:01:40.282Z,16.90
2022-09-20T16:04:13.307Z,16.79
2022-09-20T16:06:45.010Z,16.69
2022-09-20T16:09:15.169Z,16.52
2022-09-20T16:11:44.079Z,16.36
2022-09-20T16:14:15.369Z,16.22
2022-09-20T16:16:51.004Z,16.04
2022-09-20T16:19:22.744Z,15.89
2022-09-20T16:21:59.127Z,15.70
2022-09-20T16:24:32.131Z,15.57
2022-09-20T16:27:05.212Z,15.42
2022-09-20T16:29:36.379Z,15.28
2022-09-20T16:32:06.718Z,15.10
2022-09-20T16:34:37.476Z,14.97
2022-09-20T16:37:14.898Z,14.84
2022-09-20T16:39:47.214Z,14.71
2022-09-20T16:42:19.187Z,14.59
2022-09-20T16:44:48.197Z,14.46
2022-09-20T16:47:25.908Z,14.34
2022-09-20T16:49:57.095Z,14.22
2022-09-20T16:52:28.084Z,14.08
2022-09-20T16:54:59.752Z,13.94
2022-09-20T16:57:34.336Z,13.81
2022-09-20T17:00:07.020Z,13.73
2022-09-20T17:02:37.758Z,13.65
2022-09-20T17:05:08.078Z,13.64
2022-09-20T17:07:36.820Z,13.59
2022-09-20T17:10:07.198Z,13.56
2022-09-20T17:12:47.318Z,13.53
2022-09-20T17:15:18.000Z,13.51
2022-09-20T17:17:47.211Z,13.49
2022-09-20T17:20:17.987Z,13.49
2022-09-20T17:22:47.399Z,13.49
2022-09-20T17:25:16.570Z,13.50
2022-09-20T17:27:51.868Z,13.55
2022-09-20T17:30:25.619Z,13.55
2022-09-20T17:32:56.373Z,13.49
2022-09-20T17:35:29.707Z,13.46
2022-09-20T17:38:01.987Z,13.42
2022-09-20T17:40:31.715Z,13.39
2022-09-20T17:43:00.936Z,13.32
2022-09-20T17:45:31.199Z,13.28
2022-09-20T17:48:00.777Z,13.24
2022-09-20T17:50:32.397Z,13.17
2022-09-20T17:53:01.729Z,13.17
2022-09-20T17:55:33.113Z,13.14
2022-09-20T17:58:02.788Z,13.10
2022-09-20T18:00:32.788Z,13.05
2022-09-20T18:03:05.102Z,13.00
2022-09-20T18:05:36.069Z,12.98
2022-09-20T18:08:08.068Z,13.01
2022-09-20T18:10:38.365Z,13.00
2022-09-20T18:13:10.712Z,12.96
2022-09-20T18:15:55.085Z,12.92
2022-09-20T18:18:24.689Z,12.86
2022-09-20T18:20:54.638Z,12.80
2022-09-20T18:23:24.206Z,12.74
2022-09-20T18:26:14.050Z,12.65
2022-09-20T18:28:48.974Z,12.57
2022-09-20T18:31:21.930Z,12.50
2022-09-20T18:34:00.294Z,12.46
2022-09-20T18:36:31.142Z,12.40
2022-09-20T18:39:01.364Z,12.32
2022-09-20T18:41:33.761Z,12.25
2022-09-20T18:44:04.816Z,12.23
2022-09-20T18:46:38.688Z,12.18
2022-09-20T18:49:10.047Z,12.06
2022-09-20T18:51:40.496Z,12.03
2022-09-20T18:54:12.153Z,12.04
2022-09-20T18:56:43.681Z,12.05
2022-09-20T18:59:19.336Z,11.95
2022-09-20T19:01:51.177Z,11.88
2022-09-20T19:04:59.241Z,11.81
2022-09-20T19:07:28.813Z,11.64
2022-09-20T19:10:27.514Z,11.47
2022-09-20T19:13:39.332Z,11.40
2022-09-20T19:16:22.588Z,11.37
2022-09-20T19:19:15.206Z,11.41
2022-09-20T19:22:04.896Z,11.42
2022-09-20T19:25:15.389Z,11.47
2022-09-20T19:27:44.756Z,11.45
2022-09-20T19:30:15.655Z,11.44
2022-09-20T19:32:48.391Z,11.40
2022-09-20T19:35:24.841Z,11.40
2022-09-20T19:38:15.865Z,11.39
2022-09-20T19:40:59.237Z,11.36
2022-09-20T19:43:55.795Z,11.36
2022-09-20T19:46:47.587Z,11.39
2022-09-20T19:49:32.596Z,11.30
2022-09-20T19:52:04.980Z,11.29
2022-09-20T19:54:42.183Z,11.33
2022-09-20T19:57:20.719Z,11.34
2022-09-20T19:59:51.303Z,11.36
2022-09-20T20:02:21.477Z,11.43
2022-09-20T20:05:05.259Z,11.41
2022-09-20T20:07:43.447Z,11.39
2022-09-20T20:10:19.427Z,11.41
2022-09-20T20:13:39.093Z,11.42
2022-09-20T20:16:15.691Z,11.45
2022-09-20T20:19:16.208Z,11.47
2022-09-20T20:22:11.109Z,11.52
2022-09-20T20:24:46.407Z,11.55
2022-09-20T20:27:16.233Z,11.57
2022-09-20T20:29:47.930Z,11.56
2022-09-20T20:32:17.779Z,11.50
2022-09-20T20:34:47.900Z,11.43
2022-09-20T20:37:18.467Z,11.40
2022-09-20T20:39:49.592Z,11.33
2022-09-20T20:42:19.052Z,11.28
2022-09-20T20:44:48.352Z,11.23
2022-09-20T20:47:19.211Z,11.25
2022-09-20T20:49:52.500Z,11.19
2022-09-20T20:52:24.965Z,11.13
2022-09-20T20:54:55.178Z,11.10
2022-09-20T20:57:24.387Z,11.01
2022-09-20T20:59:53.385Z,10.93
2022-09-20T21:02:24.451Z,10.85
2022-09-20T21:04:54.947Z,10.76
2022-09-20T21:07:23.850Z,10.73
2022-09-20T21:09:52.888Z,10.71
2022-09-20T21:12:22.825Z,10.73
2022-09-20T21:14:54.475Z,10.73
2022-09-20T21:17:25.009Z,10.76
2022-09-20T21:19:56.169Z,10.72
2022-09-20T21:22:25.008Z,10.77
2022-09-20T21:24:55.834Z,10.82
2022-09-20T21:27:26.500Z,10.87
2022-09-20T21:29:57.010Z,10.89
2022-09-20T21:32:27.323Z,10.88
2022-09-20T21:34:56.108Z,10.88
2022-09-20T21:37:27.420Z,10.85
2022-09-20T21:39:57.197Z,10.80
2022-09-20T21:42:27.605Z,10.79
2022-09-20T21:44:57.267Z,10.78
2022-09-20T21:47:26.230Z,10.79
2022-09-20T21:49:56.848Z,10.79
2022-09-20T21:52:28.205Z,10.75
2022-09-20T21:54:58.118Z,10.78
2022-09-20T21:57:29.296Z,10.85
2022-09-20T21:59:59.353Z,10.84
2022-09-20T22:02:28.626Z,10.88
2022-09-20T22:04:59.604Z,10.91
2022-09-20T22:07:29.861Z,10.87
2022-09-20T22:09:59.696Z,10.91
2022-09-20T22:12:28.627Z,10.95
2022-09-20T22:14:59.416Z,11.01
2022-09-20T22:17:29.963Z,11.05
2022-09-20T22:19:59.948Z,11.05
2022-09-20T22:22:30.387Z,11.01
2022-09-20T22:24:59.165Z,10.94
2022-09-20T22:27:29.668Z,10.89
2022-09-20T22:30:01.499Z,10.83
2022-09-20T22:32:34.106Z,10.81
2022-09-20T22:35:05.295Z,10.75
2022-09-20T22:37:34.096Z,10.69
2022-09-20T22:40:05.596Z,10.65
2022-09-20T22:42:35.835Z,10.59
2022-09-20T22:45:06.114Z,10.48
2022-09-20T22:47:35.802Z,10.43
2022-09-20T22:50:05.976Z,10.41
2022-09-20T22:52:35.306Z,10.42
2022-09-20T22:55:06.122Z,10.48
2022-09-20T22:57:36.474Z,10.52
2022-09-20T23:00:06.614Z,10.56
2022-09-20T23:02:37.264Z,10.67
2022-09-20T23:05:06.708Z,10.76
2022-09-20T23:07:35.599Z,10.79
2022-09-20T23:10:06.098Z,10.85
2022-09-20T23:12:35.020Z,10.83
2022-09-20T23:15:05.538Z,10.87
2022-09-20T23:17:34.322Z,10.86
2022-09-20T23:20:06.412Z,10.81
2022-09-20T23:22:35.443Z,10.80
2022-09-20T23:25:04.532Z,10.77
2022-09-20T23:27:33.417Z,10.76
2022-09-20T23:30:02.889Z,10.71
2022-09-20T23:32:31.826Z,10.63
2022-09-20T23:35:01.423Z,10.61
2022-09-20T23:37:32.014Z,10.53
2022-09-20T23:40:01.191Z,10.48
2022-09-20T23:42:30.401Z,10.45
2022-09-20T23:44:59.288Z,10.44
2022-09-20T23:47:29.989Z,10.39
2022-09-20T23:50:00.815Z,10.32
2022-09-20T23:52:30.662Z,10.31
2022-09-20T23:54:59.585Z,10.31
2022-09-20T23:57:31.198Z,10.26
